createdAt,value
2017-12-13T00:02:26.524Z,100.00
2017-12-13T00:04:56.152Z,100.00
2017-12-13T00:07:25.777Z,100.00
2017-12-13T00:09:55.616Z,100.00
2017-12-13T00:12:25.435Z,100.00
2017-12-13T00:14:55.277Z,100.00
2017-12-13T00:17:25.145Z,100.00
2017-12-13T00:19:54.742Z,100.00
2017-12-13T00:22:32.742Z,100.00
2017-12-13T00:25:02.764Z,100.00
2017-12-13T00:27:32.794Z,100.00
2017-12-13T00:30:02.649Z,100.00
2017-12-13T00:32:32.603Z,100.00
2017-12-13T00:35:02.560Z,100.00
2017-12-13T00:37:32.389Z,100.00
2017-12-13T00:40:02.276Z,100.00
2017-12-13T00:42:32.094Z,100.00
2017-12-13T00:45:02.027Z,100.00
2017-12-13T00:47:32.047Z,100.00
2017-12-13T00:50:01.977Z,100.00
2017-12-13T00:52:31.860Z,100.00
2017-12-13T00:55:01.895Z,100.00
2017-12-13T00:57:31.763Z,100.00
2017-12-13T01:00:01.807Z,100.00
2017-12-13T01:02:31.277Z,100.00
2017-12-13T01:05:01.228Z,100.00
2017-12-13T01:07:31.083Z,100.00
2017-12-13T01:10:00.911Z,100.00
2017-12-13T01:12:30.771Z,100.00
2017-12-13T01:15:00.678Z,100.00
2017-12-13T01:17:30.558Z,100.00
2017-12-13T01:20:00.375Z,100.00
2017-12-13T01:22:30.213Z,100.00
2017-12-13T01:25:00.061Z,100.00
2017-12-13T01:27:29.990Z,100.00
2017-12-13T01:29:59.906Z,100.00
2017-12-13T01:32:29.723Z,100.00
2017-12-13T01:34:59.633Z,100.00
2017-12-13T01:37:29.544Z,100.00
2017-12-13T01:39:59.454Z,100.00
2017-12-13T01:42:29.301Z,100.00
2017-12-13T01:44:59.157Z,100.00
2017-12-13T01:47:29.004Z,100.00
2017-12-13T01:50:05.830Z,100.00
2017-12-13T01:52:36.624Z,100.00
2017-12-13T01:55:06.536Z,100.00
2017-12-13T01:57:36.449Z,100.00
2017-12-13T02:00:06.317Z,100.00
2017-12-13T02:02:35.936Z,100.00
2017-12-13T02:05:05.882Z,100.00
2017-12-13T02:07:35.954Z,100.00
2017-12-13T02:10:05.855Z,100.00
2017-12-13T02:12:35.757Z,100.00
2017-12-13T02:15:05.352Z,100.00
2017-12-13T02:17:35.452Z,100.00
2017-12-13T02:20:04.988Z,100.00
2017-12-13T02:22:34.849Z,100.00
2017-12-13T02:27:48.502Z,100.00
2017-12-13T02:30:18.601Z,100.00
2017-12-13T02:32:48.442Z,100.00
2017-12-13T02:35:18.373Z,100.00
2017-12-13T02:37:48.268Z,100.00
2017-12-13T02:40:29.257Z,100.00
2017-12-13T02:42:58.882Z,100.00
2017-12-13T02:45:28.774Z,100.00
2017-12-13T02:47:58.634Z,100.00
2017-12-13T02:50:28.260Z,100.00
2017-12-13T02:52:58.109Z,100.00
2017-12-13T02:55:28.025Z,100.00
2017-12-13T02:57:57.612Z,100.00
2017-12-13T03:00:27.560Z,100.00
2017-12-13T03:02:57.212Z,100.00
2017-12-13T03:05:27.222Z,100.00
2017-12-13T03:07:57.148Z,100.00
2017-12-13T03:10:26.989Z,100.00
2017-12-13T03:12:56.885Z,100.00
2017-12-13T03:15:26.803Z,100.00
2017-12-13T03:17:56.761Z,100.00
2017-12-13T03:20:26.638Z,100.00
2017-12-13T03:22:56.541Z,100.00
2017-12-13T03:25:26.448Z,100.00
2017-12-13T03:27:56.363Z,100.00
2017-12-13T03:30:26.252Z,100.00
2017-12-13T03:32:56.171Z,100.00
2017-12-13T03:35:26.003Z,100.00
2017-12-13T03:37:55.853Z,100.00
2017-12-13T03:40:25.712Z,100.00
2017-12-13T03:42:55.586Z,100.00
2017-12-13T03:45:25.460Z,100.00
2017-12-13T03:47:55.344Z,100.00
2017-12-13T03:50:25.393Z,100.00
2017-12-13T03:52:55.312Z,100.00
2017-12-13T03:55:25.184Z,100.00
2017-12-13T03:57:55.070Z,100.00
2017-12-13T04:00:24.759Z,100.00
2017-12-13T04:02:54.459Z,100.00
2017-12-13T04:05:24.379Z,100.00
2017-12-13T04:07:54.252Z,100.00
2017-12-13T04:10:24.208Z,100.00
2017-12-13T04:12:54.057Z,100.00
2017-12-13T04:15:23.970Z,100.00
2017-12-13T04:17:53.895Z,100.00
2017-12-13T04:20:24.197Z,100.00
2017-12-13T04:22:54.098Z,100.00
2017-12-13T04:25:23.946Z,100.00
2017-12-13T04:27:53.814Z,100.00
2017-12-13T04:30:23.653Z,100.00
2017-12-13T04:32:54.437Z,100.00
2017-12-13T04:35:24.598Z,100.00
2017-12-13T04:37:54.562Z,100.00
2017-12-13T04:40:24.388Z,100.00
2017-12-13T04:42:54.316Z,100.00
2017-12-13T04:45:24.309Z,100.00
2017-12-13T04:47:54.421Z,100.00
2017-12-13T04:50:24.976Z,100.00
2017-12-13T04:52:55.582Z,100.00
2017-12-13T04:55:27.694Z,100.00
2017-12-13T04:57:57.636Z,100.00
2017-12-13T05:00:28.048Z,100.00
2017-12-13T05:02:57.691Z,100.00
2017-12-13T05:05:27.525Z,100.00
2017-12-13T05:07:57.467Z,100.00
2017-12-13T05:10:26.965Z,100.00
2017-12-13T05:12:56.843Z,100.00
2017-12-13T05:15:26.726Z,100.00
2017-12-13T05:17:56.697Z,100.00
2017-12-13T05:20:26.734Z,100.00
2017-12-13T05:22:57.514Z,100.00
2017-12-13T05:25:27.469Z,100.00
2017-12-13T05:27:57.442Z,100.00
2017-12-13T05:30:27.513Z,100.00
2017-12-13T05:33:06.765Z,100.00
2017-12-13T05:35:46.592Z,100.00
2017-12-13T05:38:21.286Z,100.00
2017-12-13T05:40:51.585Z,100.00
2017-12-13T05:43:21.516Z,100.00
2017-12-13T05:45:51.445Z,100.00
2017-12-13T05:50:55.497Z,100.00
2017-12-13T05:53:25.957Z,100.00
2017-12-13T05:56:04.783Z,100.00
2017-12-13T05:58:47.645Z,100.00
2017-12-13T06:01:27.512Z,100.00
2017-12-13T06:04:08.375Z,100.00
2017-12-13T06:07:01.401Z,100.00
2017-12-13T06:09:49.385Z,100.00
2017-12-13T06:12:30.188Z,100.00
2017-12-13T06:15:03.562Z,100.00
2017-12-13T06:17:36.363Z,100.00
2017-12-13T06:20:06.561Z,100.00
2017-12-13T06:22:44.485Z,100.00
2017-12-13T06:25:14.165Z,100.00
2017-12-13T06:30:19.989Z,100.00
2017-12-13T06:32:50.266Z,100.00
2017-12-13T06:35:20.528Z,100.00
2017-12-13T06:37:51.530Z,100.00
2017-12-13T06:40:21.584Z,100.00
2017-12-13T06:42:55.745Z,100.00
2017-12-13T06:45:25.945Z,100.00
2017-12-13T06:47:55.941Z,100.00
2017-12-13T06:50:26.141Z,100.00
2017-12-13T06:52:58.503Z,100.00
2017-12-13T06:55:30.270Z,100.00
2017-12-13T06:58:02.308Z,100.00
2017-12-13T07:00:38.718Z,100.00
2017-12-13T07:03:10.984Z,100.00
2017-12-13T07:05:41.779Z,100.00
2017-12-13T07:08:11.838Z,100.00
2017-12-13T07:10:42.933Z,100.00
2017-12-13T07:13:13.353Z,100.00
2017-12-13T07:15:44.515Z,100.00
2017-12-13T07:18:14.575Z,100.00
2017-12-13T07:20:52.795Z,100.00
2017-12-13T07:25:57.352Z,100.00
2017-12-13T07:28:27.876Z,100.00
2017-12-13T07:30:58.351Z,100.00
2017-12-13T07:33:28.320Z,100.00
2017-12-13T07:35:58.159Z,100.00
2017-12-13T07:38:28.315Z,100.00
2017-12-13T07:40:58.465Z,100.00
2017-12-13T07:43:28.343Z,100.00
2017-12-13T07:45:58.341Z,100.00
2017-12-13T07:48:30.012Z,100.00
2017-12-13T07:50:59.934Z,100.00
2017-12-13T07:53:30.443Z,100.00
2017-12-13T07:56:01.324Z,97.57
2017-12-13T07:58:31.621Z,87.22
2017-12-13T08:01:01.557Z,85.77
2017-12-13T08:03:31.448Z,85.92
2017-12-13T08:06:01.244Z,77.57
2017-12-13T08:08:30.821Z,75.67
2017-12-13T08:11:00.633Z,73.30
2017-12-13T08:13:31.380Z,71.79
2017-12-13T08:16:01.213Z,65.20
2017-12-13T08:18:31.566Z,65.39
2017-12-13T08:21:02.325Z,62.38
2017-12-13T08:23:32.251Z,60.44
2017-12-13T08:26:02.481Z,60.15
2017-12-13T08:28:32.289Z,57.26
2017-12-13T08:31:02.851Z,56.20
2017-12-13T08:33:32.862Z,56.70
2017-12-13T08:36:02.447Z,53.94
2017-12-13T08:38:32.268Z,52.01
2017-12-13T08:41:01.764Z,47.26
2017-12-13T08:43:31.261Z,46.17
2017-12-13T08:46:01.135Z,42.91
2017-12-13T08:48:34.937Z,42.21
2017-12-13T08:51:04.766Z,43.20
2017-12-13T08:53:36.127Z,41.10
2017-12-13T08:56:05.958Z,44.73
2017-12-13T08:58:35.619Z,46.89
2017-12-13T09:01:05.210Z,47.58
2017-12-13T09:03:35.613Z,48.48
2017-12-13T09:06:05.533Z,46.72
2017-12-13T09:08:35.965Z,39.97
2017-12-13T09:11:05.779Z,39.30
2017-12-13T09:13:35.653Z,38.04
2017-12-13T09:16:05.524Z,38.29
2017-12-13T09:18:35.460Z,36.47
2017-12-13T09:21:05.006Z,35.76
2017-12-13T09:23:35.276Z,36.20
2017-12-13T09:26:04.851Z,33.81
2017-12-13T09:28:34.427Z,35.03
2017-12-13T09:31:03.932Z,35.92
2017-12-13T09:33:33.450Z,34.10
2017-12-13T09:36:02.973Z,34.45
2017-12-13T09:38:32.656Z,34.79
2017-12-13T09:41:02.289Z,30.44
2017-12-13T09:43:32.297Z,28.80
2017-12-13T09:46:02.081Z,30.00
2017-12-13T09:48:31.616Z,34.58
2017-12-13T09:51:01.609Z,29.59
2017-12-13T09:53:31.799Z,31.14
2017-12-13T09:56:01.541Z,27.95
2017-12-13T09:58:31.082Z,30.09
2017-12-13T10:01:00.313Z,36.35
2017-12-13T10:03:29.962Z,32.07
2017-12-13T10:05:59.446Z,29.44
2017-12-13T10:08:32.758Z,28.80
2017-12-13T10:11:02.324Z,29.03
2017-12-13T10:13:31.862Z,29.16
2017-12-13T10:16:01.381Z,29.41
2017-12-13T10:18:30.714Z,27.02
2017-12-13T10:21:00.272Z,28.50
2017-12-13T10:23:31.781Z,33.15
2017-12-13T10:26:01.285Z,30.37
2017-12-13T10:28:30.806Z,31.99
2017-12-13T10:31:00.328Z,34.47
2017-12-13T10:33:30.491Z,33.43
2017-12-13T10:36:00.031Z,35.21
2017-12-13T10:38:30.111Z,32.18
2017-12-13T10:40:59.660Z,30.60
2017-12-13T10:43:29.288Z,28.93
2017-12-13T10:45:59.242Z,28.59
2017-12-13T10:48:28.585Z,24.62
2017-12-13T10:50:58.214Z,20.72
2017-12-13T10:53:27.773Z,22.54
2017-12-13T10:55:57.330Z,21.33
2017-12-13T10:58:27.067Z,20.18
2017-12-13T11:00:56.539Z,21.23
2017-12-13T11:03:25.828Z,19.99
2017-12-13T11:05:55.537Z,19.97
2017-12-13T11:08:25.355Z,19.34
2017-12-13T11:10:54.727Z,20.21
2017-12-13T11:13:24.377Z,21.19
2017-12-13T11:15:54.102Z,19.86
2017-12-13T11:18:24.076Z,21.30
2017-12-13T11:20:53.902Z,19.56
2017-12-13T11:23:23.550Z,22.82
2017-12-13T11:25:53.191Z,26.12
2017-12-13T11:28:22.682Z,35.68
2017-12-13T11:30:51.825Z,31.57
2017-12-13T11:33:21.496Z,39.03
2017-12-13T11:35:51.103Z,39.93
2017-12-13T11:38:20.848Z,38.60
2017-12-13T11:40:50.688Z,38.00
2017-12-13T11:43:20.326Z,37.56
2017-12-13T11:45:50.173Z,37.63
2017-12-13T11:48:20.218Z,35.44
2017-12-13T11:50:50.029Z,34.01
2017-12-13T11:53:19.556Z,29.85
2017-12-13T11:55:49.544Z,29.49
2017-12-13T11:58:19.073Z,26.00
2017-12-13T12:00:48.762Z,24.96
2017-12-13T12:03:18.518Z,22.54
2017-12-13T12:05:48.130Z,20.56
2017-12-13T12:08:17.897Z,18.25
2017-12-13T12:10:47.570Z,17.21
2017-12-13T12:13:17.438Z,17.47
2017-12-13T12:15:47.017Z,17.14
2017-12-13T12:18:16.569Z,19.62
2017-12-13T12:20:46.039Z,18.62
2017-12-13T12:23:15.561Z,22.08
2017-12-13T12:25:45.083Z,17.50
2017-12-13T12:28:14.587Z,20.34
2017-12-13T12:30:44.126Z,21.24
2017-12-13T12:33:13.608Z,22.82
2017-12-13T12:35:43.345Z,27.00
2017-12-13T12:38:13.465Z,22.67
2017-12-13T12:40:42.956Z,24.93
2017-12-13T12:43:13.036Z,22.75
2017-12-13T12:45:42.923Z,19.73
2017-12-13T12:48:13.132Z,19.32
2017-12-13T12:50:42.688Z,17.69
2017-12-13T12:53:12.248Z,17.00
2017-12-13T12:55:41.758Z,17.84
2017-12-13T12:58:11.307Z,17.90
2017-12-13T13:00:40.662Z,15.59
2017-12-13T13:03:10.010Z,15.19
2017-12-13T13:05:39.585Z,16.48
2017-12-13T13:08:08.996Z,14.32
2017-12-13T13:10:38.525Z,14.16
2017-12-13T13:13:08.214Z,14.61
2017-12-13T13:15:37.724Z,13.03
2017-12-13T13:18:07.004Z,21.77
2017-12-13T13:20:36.193Z,23.70
2017-12-13T13:23:06.043Z,17.47
2017-12-13T13:25:35.695Z,18.12
2017-12-13T13:28:05.472Z,29.21
2017-12-13T13:30:37.057Z,22.86
2017-12-13T13:33:06.660Z,22.17
2017-12-13T13:35:36.932Z,20.84
2017-12-13T13:38:06.358Z,21.73
2017-12-13T13:40:36.066Z,18.01
2017-12-13T13:43:05.690Z,18.71
2017-12-13T13:45:35.448Z,20.86
2017-12-13T13:48:07.233Z,19.37
2017-12-13T13:53:30.625Z,20.86
2017-12-13T13:58:42.142Z,26.87
2017-12-13T14:01:24.673Z,23.75
2017-12-13T14:03:58.327Z,25.74
2017-12-13T14:06:29.978Z,25.67
2017-12-13T14:11:33.699Z,25.80
2017-12-13T14:14:03.974Z,26.77
2017-12-13T14:16:34.526Z,26.14
2017-12-13T14:19:04.060Z,29.09
2017-12-13T14:21:33.670Z,33.66
2017-12-13T14:24:03.590Z,37.79
2017-12-13T14:26:33.327Z,40.60
2017-12-13T14:29:02.904Z,44.29
2017-12-13T14:31:32.457Z,46.46
2017-12-13T14:34:02.442Z,49.75
2017-12-13T14:36:32.317Z,51.43
2017-12-13T14:39:02.130Z,52.90
2017-12-13T14:41:32.017Z,53.60
2017-12-13T14:44:02.547Z,55.08
2017-12-13T14:46:33.447Z,56.75
2017-12-13T14:49:03.501Z,58.42
2017-12-13T14:51:37.807Z,59.75
2017-12-13T14:54:07.636Z,60.59
2017-12-13T14:56:37.671Z,61.81
2017-12-13T14:59:07.585Z,64.17
2017-12-13T15:01:38.020Z,66.28
2017-12-13T15:04:07.966Z,67.64
2017-12-13T15:06:37.781Z,69.09
2017-12-13T15:09:07.637Z,69.86
2017-12-13T15:11:37.635Z,71.20
2017-12-13T15:14:07.452Z,73.07
2017-12-13T15:16:37.265Z,74.48
2017-12-13T15:19:07.361Z,76.20
2017-12-13T15:21:38.176Z,77.30
2017-12-13T15:24:08.664Z,77.87
2017-12-13T15:26:39.606Z,78.70
2017-12-13T15:29:09.590Z,79.79
2017-12-13T15:31:39.678Z,80.39
2017-12-13T15:34:09.973Z,81.46
2017-12-13T15:36:40.153Z,82.12
2017-12-13T15:39:10.274Z,83.14
2017-12-13T15:41:40.075Z,83.84
2017-12-13T15:44:10.129Z,84.23
2017-12-13T15:46:41.043Z,85.22
2017-12-13T15:49:12.542Z,85.19
2017-12-13T15:51:44.058Z,85.24
2017-12-13T15:54:14.589Z,85.00
2017-12-13T15:56:45.429Z,85.25
2017-12-13T15:59:17.091Z,85.81
2017-12-13T16:01:48.709Z,85.46
2017-12-13T16:04:19.004Z,85.77
2017-12-13T16:06:49.722Z,85.84
2017-12-13T16:09:19.816Z,86.54
2017-12-13T16:11:49.781Z,86.76
2017-12-13T16:14:19.629Z,86.57
2017-12-13T16:16:50.095Z,86.95
2017-12-13T16:19:20.989Z,86.84
2017-12-13T16:21:52.927Z,87.24
2017-12-13T16:24:22.830Z,87.75
2017-12-13T16:26:53.064Z,87.92
2017-12-13T16:29:23.054Z,87.69
2017-12-13T16:31:52.909Z,87.10
2017-12-13T16:34:22.824Z,86.91
2017-12-13T16:36:52.791Z,86.33
2017-12-13T16:39:22.775Z,85.71
2017-12-13T16:41:52.501Z,84.79
2017-12-13T16:44:22.891Z,84.04
2017-12-13T16:46:52.758Z,82.81
2017-12-13T16:49:22.805Z,83.12
2017-12-13T16:51:52.690Z,83.77
2017-12-13T16:54:22.696Z,84.49
2017-12-13T16:56:52.595Z,84.62
2017-12-13T16:59:22.456Z,85.03
2017-12-13T17:01:52.303Z,85.33
2017-12-13T17:04:22.142Z,85.41
2017-12-13T17:06:52.007Z,85.02
2017-12-13T17:09:22.910Z,84.99
2017-12-13T17:11:53.065Z,85.60
2017-12-13T17:14:22.984Z,86.81
2017-12-13T17:16:53.013Z,87.67
2017-12-13T17:19:23.283Z,87.82
2017-12-13T17:21:53.587Z,88.11
2017-12-13T17:24:28.213Z,88.27
2017-12-13T17:26:58.061Z,89.17
2017-12-13T17:29:28.113Z,89.42
2017-12-13T17:31:58.920Z,88.90
2017-12-13T17:34:29.032Z,88.56
2017-12-13T17:36:58.926Z,88.94
2017-12-13T17:39:28.857Z,89.69
2017-12-13T17:41:59.102Z,90.15
2017-12-13T17:44:29.194Z,90.52
2017-12-13T17:46:59.268Z,90.99
2017-12-13T17:49:28.908Z,90.90
2017-12-13T17:51:58.728Z,91.06
2017-12-13T17:54:28.588Z,91.35
2017-12-13T17:56:58.459Z,91.48
2017-12-13T17:59:28.346Z,91.53
2017-12-13T18:01:58.182Z,91.48
2017-12-13T18:04:27.734Z,91.60
2017-12-13T18:06:57.761Z,91.45
2017-12-13T18:09:27.436Z,90.96
2017-12-13T18:11:58.844Z,89.39
2017-12-13T18:14:30.057Z,88.30
2017-12-13T18:17:05.067Z,87.29
2017-12-13T18:19:35.922Z,86.67
2017-12-13T18:22:12.882Z,86.05
2017-12-13T18:24:43.092Z,85.41
2017-12-13T18:27:12.903Z,84.83
2017-12-13T18:29:42.741Z,84.11
2017-12-13T18:32:12.593Z,84.37
2017-12-13T18:37:19.639Z,84.55
2017-12-13T18:39:49.805Z,84.59
2017-12-13T18:42:20.010Z,84.89
2017-12-13T18:44:49.930Z,85.09
2017-12-13T18:47:20.053Z,85.82
2017-12-13T18:49:50.249Z,86.60
2017-12-13T18:52:20.102Z,87.39
2017-12-13T18:54:50.011Z,87.79
2017-12-13T18:57:19.840Z,88.02
2017-12-13T18:59:49.331Z,87.93
2017-12-13T19:02:18.835Z,87.83
2017-12-13T19:04:48.649Z,87.65
2017-12-13T19:07:18.544Z,87.31
2017-12-13T19:09:48.379Z,86.31
2017-12-13T19:12:18.192Z,85.05
2017-12-13T19:14:51.956Z,84.33
2017-12-13T19:17:21.748Z,83.96
2017-12-13T19:19:51.622Z,83.72
2017-12-13T19:22:21.442Z,83.73
2017-12-13T19:24:51.272Z,83.68
2017-12-13T19:27:21.097Z,83.26
2017-12-13T19:29:50.943Z,83.49
2017-12-13T19:32:20.812Z,83.24
2017-12-13T19:34:50.699Z,82.71
2017-12-13T19:37:20.542Z,82.10
2017-12-13T19:39:51.116Z,80.21
2017-12-13T19:42:21.073Z,79.72
2017-12-13T19:44:52.219Z,79.37
2017-12-13T19:47:22.449Z,79.48
2017-12-13T19:49:52.414Z,79.57
2017-12-13T19:52:22.320Z,78.69
2017-12-13T19:54:54.800Z,77.52
2017-12-13T19:57:24.590Z,77.63
2017-12-13T19:59:54.426Z,77.60
2017-12-13T20:02:23.996Z,76.44
2017-12-13T20:04:54.894Z,75.39
2017-12-13T20:07:24.769Z,73.63
2017-12-13T20:09:54.593Z,73.41
2017-12-13T20:12:24.453Z,73.65
2017-12-13T20:14:53.837Z,73.56
2017-12-13T20:17:23.451Z,73.32
2017-12-13T20:19:53.419Z,73.63
2017-12-13T20:22:23.202Z,74.18
2017-12-13T20:24:53.038Z,74.17
2017-12-13T20:27:22.937Z,73.71
2017-12-13T20:29:52.766Z,73.50
2017-12-13T20:32:26.151Z,74.04
2017-12-13T20:34:56.273Z,74.75
2017-12-13T20:40:00.387Z,75.14
2017-12-13T20:42:30.316Z,74.61
2017-12-13T20:45:00.241Z,74.77
2017-12-13T20:47:30.523Z,74.97
2017-12-13T20:50:04.996Z,75.15
2017-12-13T20:52:35.714Z,75.70
2017-12-13T20:55:05.568Z,75.50
2017-12-13T20:57:35.432Z,75.43
2017-12-13T21:00:06.398Z,75.71
2017-12-13T21:02:35.975Z,76.22
2017-12-13T21:05:10.180Z,76.41
2017-12-13T21:07:40.174Z,76.18
2017-12-13T21:10:10.879Z,76.03
2017-12-13T21:12:40.874Z,76.42
2017-12-13T21:15:10.860Z,77.62
2017-12-13T21:17:40.548Z,77.21
2017-12-13T21:20:10.410Z,77.07
2017-12-13T21:22:40.237Z,77.30
2017-12-13T21:25:10.156Z,78.74
2017-12-13T21:27:40.130Z,79.40
2017-12-13T21:30:10.414Z,80.35
2017-12-13T21:32:40.735Z,81.49
2017-12-13T21:35:10.919Z,81.38
2017-12-13T21:37:41.756Z,81.08
2017-12-13T21:40:12.081Z,81.45
2017-12-13T21:42:42.406Z,82.46
2017-12-13T21:45:15.441Z,84.02
2017-12-13T21:47:46.424Z,83.80
2017-12-13T21:50:16.974Z,83.99
2017-12-13T21:52:47.727Z,83.70
2017-12-13T21:55:17.768Z,82.96
2017-12-13T21:57:47.853Z,83.05
2017-12-13T22:00:18.376Z,83.14
2017-12-13T22:02:48.611Z,82.88
2017-12-13T22:05:18.254Z,84.04
2017-12-13T22:07:48.087Z,85.16
2017-12-13T22:10:18.062Z,86.08
2017-12-13T22:12:47.955Z,86.36
2017-12-13T22:15:17.831Z,86.68
2017-12-13T22:17:47.654Z,86.38
2017-12-13T22:20:17.565Z,86.30
2017-12-13T22:22:47.404Z,86.46
2017-12-13T22:25:17.311Z,86.39
2017-12-13T22:27:47.228Z,86.94
2017-12-13T22:30:17.078Z,88.12
2017-12-13T22:32:46.932Z,89.10
2017-12-13T22:35:16.764Z,90.00
2017-12-13T22:37:46.691Z,90.69
2017-12-13T22:40:16.477Z,92.35
2017-12-13T22:42:46.592Z,92.68
2017-12-13T22:45:16.490Z,92.55
2017-12-13T22:47:46.394Z,92.05
2017-12-13T22:50:16.359Z,91.32
2017-12-13T22:52:46.321Z,90.08
2017-12-13T22:55:16.784Z,89.24
2017-12-13T22:57:46.748Z,88.65
2017-12-13T23:00:16.609Z,88.28
2017-12-13T23:02:46.256Z,87.89
2017-12-13T23:05:16.490Z,87.31
2017-12-13T23:07:46.387Z,86.97
2017-12-13T23:10:16.179Z,86.62
2017-12-13T23:12:46.033Z,85.37
2017-12-13T23:15:16.491Z,84.31
2017-12-13T23:17:46.365Z,83.21
2017-12-13T23:20:16.027Z,82.53
2017-12-13T23:22:45.861Z,83.23
2017-12-13T23:25:15.433Z,84.48
2017-12-13T23:27:45.020Z,85.31
2017-12-13T23:30:14.297Z,85.83
2017-12-13T23:32:44.922Z,86.46
2017-12-13T23:35:15.582Z,86.88
2017-12-13T23:37:45.728Z,87.40
2017-12-13T23:40:15.311Z,87.52
2017-12-13T23:42:45.518Z,87.07
2017-12-13T23:45:15.978Z,86.27
2017-12-13T23:47:45.829Z,85.74
2017-12-13T23:50:15.630Z,85.91
2017-12-13T23:52:45.827Z,86.54
2017-12-13T23:55:15.689Z,87.21
2017-12-13T23:57:47.155Z,87.57
